Home > Products > Valid Products > MTR

000
SAUS41 KCAR 251516
MTR40B
METAR K40B 251516Z AUTO VRB05G10KT 22/11 A2987 RMK AO1 SLP116
     T02220114 57006





000
SAUS41 KCAR 251457
MTRGNR
METAR KGNR 251456Z AUTO 32007KT 240V340 21/13 A2991 RMK AO1 SLP128
T02110128 55001





000
SAUS41 KCAR 251416
MTR40B
METAR K40B 251416Z AUTO VRB05G10KT 21/12 A2987 RMK AO1 SLP118
     T02060115 58003





000
SAUS41 KCAR 251357
MTRGNR
METAR KGNR 251356Z AUTO VRB05KT 19/12 A2991 RMK AO1 SLP127 T01940122





000
SAUS41 KCAR 251316
MTR40B
METAR K40B 251316Z AUTO VRB05G11KT 19/13 A2989 RMK AO1 SLP124
     T01860127 52003





000
SAUS41 KCAR 251257
MTRGNR
METAR KGNR 251256Z AUTO VRB03KT 18/12 A2991 RMK AO1 SLP130 T01780122





000
SAUS41 KCAR 251216
MTR40B
METAR K40B 251216Z AUTO VRB04KT 16/12 A2989 RMK AO1 SLP125
     T01650120 10165 20092 52006 70000





000
SAUS41 KCAR 251157
MTRGNR
METAR KGNR 251156Z AUTO 34005KT 17/11 A2991 RMK AO1 SLP129 T01670111
10167 20111 51010





000
SAUS41 KCAR 251116
MTR40B
METAR K40B 251116Z AUTO 00000KT 14/11 A2988 RMK AO1 SLP123
     T01360106 52004





000
SAUS41 KCAR 251057
MTRGNR
METAR KGNR 251056Z AUTO 00000KT 14/11 A2990 RMK AO1 SLP127 T01440106





000
SAUS41 KCAR 251016
MTR40B
METAR K40B 251016Z AUTO 00000KT 10/09 A2988 RMK AO1 SLP120
     T01030094 52003





000
SAUS41 KCAR 250957
MTRGNR
METAR KGNR 250956Z AUTO VRB03KT 13/10 A2990 RMK AO1 SLP124 T01330100





000
SAUS41 KCAR 250916
MTR40B
METAR K40B 250916Z AUTO 00000KT 10/09 A2987 RMK AO1 SLP117
     T00990089 52002





000
SAUS41 KCAR 250857
MTRGNR
METAR KGNR 250856Z AUTO 32006KT 13/10 A2988 RMK AO1 SLP119 T01280100
56003





000
SAUS41 KCAR 250816
MTR40B
METAR K40B 250816Z AUTO VRB02KT 10/09 A2987 RMK AO1 SLP115
     T00980087 54001





000
SAUS41 KCAR 250757
MTRGNR
METAR KGNR 250756Z AUTO 33005KT 12/09 A2988 RMK AO1 SLP119 T01220094





000
SAUS41 KCAR 250716
MTR40B
METAR K40B 250716Z AUTO VRB04KT 11/09 A2987 RMK AO1 SLP114
     T01110085 54001





000
SAUS41 KCAR 250657
MTRGNR
METAR KGNR 250656Z AUTO 00000KT 12/08 A2989 RMK AO1 SLP121 T01170083





000
SAUS41 KCAR 250616
MTR40B
METAR K40B 250616Z AUTO VRB04KT 11/09 A2987 RMK AO1 SLP112
     T01110086 10143 20103 52002 60000





000
SAUS41 KCAR 250557
MTRGNR
METAR KGNR 250556Z AUTO 36005KT 13/08 A2989 RMK AO1 SLP123 T01280083
10156 20122 51006





000
SAUS41 KCAR 250516
MTR40B
METAR K40B 250516Z AUTO 00000KT 11/09 A2987 RMK AO1 SLP111
     T01060092 402180094 52003 P0000





000
SAUS41 KCAR 250457
MTRGNR
METAR KGNR 250456Z AUTO 36004KT 12/09 A2989 RMK AO1 SLP122 T01220089
402110122





000
SAUS41 KCAR 250416
MTR40B
METAR K40B 250416Z AUTO VRB02KT 11/09 A2987 RMK AO1 SLP110
     T01060093 52005





000
SAUS41 KCAR 250357
MTRGNR
METAR KGNR 250356Z AUTO 32004KT 13/09 A2989 RMK AO1 SLP121 T01280089





000
SAUS41 KCAR 250316
MTR40B
METAR K40B 250316Z AUTO 00000KT 11/10 A2986 RMK AO1 SLP107
     T01060096 51007





000
SAUS41 KCAR 250257
MTRGNR
METAR KGNR 250256Z AUTO 32004KT 13/09 A2987 RMK AO1 SLP118 T01330089
50007





000
SAUS41 KCAR 250216
MTR40B
METAR K40B 250216Z AUTO 00000KT 12/10 A2986 RMK AO1 SLP106
     T01150097 51010





000
SAUS41 KCAR 250157
MTRGNR
METAR KGNR 250156Z AUTO VRB03KT 14/09 A2988 RMK AO1 SLP118 T01390089





000
SAUS41 KCAR 250116
MTR40B
METAR K40B 250116Z AUTO VRB03KT 12/10 A2985 RMK AO1 SLP104
     T01250102 52010





000
SAUS41 KCAR 250057
MTRGNR
METAR KGNR 250056Z AUTO VRB03KT 14/10 A2986 RMK AO1 SLP113 T01390100





000
SAUS41 KCAR 250016
MTR40B
METAR K40B 250016Z AUTO 00000KT 14/11 A2984 RMK AO1 SLP099
     T01420108 10218 20143 53004





000
SAUS41 KCAR 242357
MTRGNR
METAR KGNR 242356Z AUTO 31003KT 16/10 A2985 RMK AO1 SLP110 T01610100
10211 20161 53008





000
SAUS41 KCAR 242316
MTR40B
METAR K40B 242316Z AUTO 00000KT 18/10 A2982 RMK AO1 SLP094
     T01760095 57003





000
SAUS41 KCAR 242257
MTRGNR
METAR KGNR 242256Z AUTO 32005KT 18/09 A2984 RMK AO1 SLP105 T01780094





000
SAUS41 KCAR 242216
MTR40B
METAR K40B 242216Z AUTO VRB02KT 21/06 A2982 RMK AO1 SLP095
     T02060062 57006





000
SAUS41 KCAR 242157
MTRGNR
METAR KGNR 242156Z AUTO VRB06KT 19/10 A2983 RMK AO1 SLP100 T01940100





000
SAUS41 KCAR 242116
MTR40B
METAR K40B 242116Z AUTO VRB04KT 21/07 A2983 RMK AO1 SLP097
     T02090066 57006





000
SAUS41 KCAR 242057
MTRGNR
METAR KGNR 242056Z AUTO 34010G15KT 21/11 A2983 RMK AO1 SLP099
T02060106 56008





000
SAUS41 KCAR 242016
MTR40B
METAR K40B 242016Z AUTO VRB04KT 21/06 A2983 RMK AO1 SLP100
     T02090065 57005





000
SAUS41 KCAR 241957
MTRGNR
METAR KGNR 241956Z AUTO 33010KT 21/09 A2984 RMK AO1 SLP102 T02060094





000
SAUS41 KCAR 241916
MTR40B
METAR K40B 241916Z AUTO VRB05G12KT 21/06 A2984 RMK AO1 SLP104
     T02070065 57008





000
SAUS41 KCAR 241857
MTRGNR
METAR KGNR 241856Z AUTO 33009G15KT 21/11 A2984 RMK AO1 SLP101
T02110111





000
SAUS41 KCAR 241816
MTR40B
METAR K40B 241816Z AUTO VRB03KT 20/07 A2984 RMK AO1 SLP105
     T02000072 10207 20127 57011





000
SAUS41 KCAR 241757
MTRGNR
METAR KGNR 241756Z AUTO 30004KT 19/11 A2985 RMK AO1 SLP106 T01940111
10200 20139 55003





000
SAUS41 KCAR 241716
MTR40B
METAR K40B 241716Z AUTO VRB04G13KT 19/08 A2985 RMK AO1 SLP109
     T01880075 57012





000
SAUS41 KCAR 241657
MTRGNR
METAR KGNR 241656Z AUTO 33010KT 18/11 A2985 RMK AO1 SLP106 T01830106





000
SAUS41 KCAR 241616
MTR40B
METAR K40B 241616Z AUTO VRB04KT 18/07 A2986 RMK AO1 SLP114
     T01770067 57010





000
SAUS41 KCAR 241557
MTRGNR
METAR KGNR 241556Z AUTO 33007KT 18/11 A2986 RMK AO1 SLP109 T01780106





000
SAUS41 KCAR 241516
MTR40B
METAR K40B 241516Z AUTO VRB03KT 17/08 A2988 RMK AO1 SLP118
     T01660080 57010





000
SAUS41 KCAR 241457
MTRGNR
METAR KGNR 241456Z AUTO 33008KT 290V360 16/11 A2986 RMK AO1 SLP111
T01610106 55001





000
SAUS41 KCAR 241416
MTR40B
METAR K40B 241416Z AUTO VRB04KT 15/07 A2989 RMK AO1 SLP122
     T01520074 57006





000
SAUS41 KCAR 241357
MTRGNR
METAR KGNR 241356Z AUTO VRB04KT 16/11 A2986 RMK AO1 SLP110 T01610106





000
SAUS41 KCAR 241316
MTR40B
METAR K40B 241316Z AUTO VRB02KT 15/08 A2990 RMK AO1 SLP125
     T01460081 50002





000
SAUS41 KCAR 241257
MTRGNR
METAR KGNR 241256Z AUTO 32009KT 280V340 15/11 A2986 RMK AO1 SLP112
T01500106





000
SAUS41 KCAR 241216
MTR40B
METAR K40B 241216Z AUTO VRB03KT 13/07 A2991 RMK AO1 SLP128
     T01280074 10133 20094 51011 70134





000
SAUS41 KCAR 241157
MTRGNR
METAR KGNR 241156Z AUTO 34011KT 14/11 A2987 RMK AO1 SLP113 70034
T01390111 10167 20139 51018





000
SAUS41 KCAR 241116
MTR40B
METAR K40B 241116Z AUTO 00000KT 11/08 A2991 RMK AO1 SLP127
     T01130082 52016





000
SAUS41 KCAR 241057
MTRGNR
METAR KGNR 241056Z AUTO 32005KT 14/12 A2986 RMK AO1 SLP110 T01440122





000
SAUS41 KCAR 241016
MTR40B
METAR K40B 241016Z AUTO VRB03KT 10/09 A2989 RMK AO1 SLP121
     T00970090 52018





000
SAUS41 KCAR 240957
MTRGNR
METAR KGNR 240956Z AUTO 33006KT 14/12 A2983 RMK AO1 SLP100 T01390122





000
SAUS41 KCAR 240916
MTR40B
METAR K40B 240916Z AUTO 00000KT 10/09 A2987 RMK AO1 SLP113
     T01030086 52015





000
SAUS41 KCAR 240857
MTRGNR
METAR KGNR 240856Z AUTO 36004KT 14/12 A2981 RMK AO1 SLP094 T01440122
53007





000
SAUS41 KCAR 240816
MTR40B
METAR K40B 240816Z AUTO 00000KT 11/10 A2986 RMK AO1 SLP107
     T01110098 53011





000
SAUS41 KCAR 240757
MTRGNR
METAR KGNR 240756Z AUTO 35008KT 16/12 A2979 RMK AO1 SLP087 T01560122





000
SAUS41 KCAR 240716
MTR40B
METAR K40B 240716Z AUTO 00000KT 12/11 A2984 RMK AO1 SLP099
     T01230115 53007





000
SAUS41 KCAR 240657
MTRGNR
METAR KGNR 240656Z AUTO 33007KT 16/14 A2978 RMK AO1 SLP082 T01610144





000
SAUS41 KCAR 240616
MTR40B
METAR K40B 240616Z AUTO 00000KT 13/13 A2982 RMK AO1 SLP093
     T01320129 10184 20132 51009





000
SAUS41 KCAR 240558
MTRGNR
METAR KGNR 240556Z AUTO 33008KT 17/16 A2979 RMK AO1 SLP081 60007
T01670156 10194 20167 50002





000
SAUS41 KCAR 240516
MTR40B
METAR K40B 240516Z AUTO 00000KT 14/14 A2982 RMK AO1 SLP092
     T01390136 402620138 53008





000
SAUS41 KCAR 240457
MTRGNR
METAR KGNR 240456Z AUTO 35007KT 17/16 A2980 RMK AO1 SLP083 T01720156
402890172





000
SAUS41 KCAR 240416
MTR40B
METAR K40B 240416Z AUTO 00000KT 15/14 A2982 RMK AO1 SLP088
     T01470144 52010





000
SAUS41 KCAR 240357
MTRGNR
METAR KGNR 240356Z AUTO 34008KT 18/16 A2979 RMK AO1 SLP082 T01780161





000
SAUS41 KCAR 240316
MTR40B
METAR K40B 240316Z AUTO 00000KT 16/15 A2980 RMK AO1 SLP081
     T01560152 51011





000
SAUS41 KCAR 240257
MTRGNR
METAR KGNR 240256Z AUTO VRB03KT 19/18 A2978 RMK AO1 SLP078 60007
T01890178 51005





000
SAUS41 KCAR 240216
MTR40B
METAR K40B 240216Z AUTO 00000KT 17/16 A2980 RMK AO1 SLP080
     T01680163 52018





000
SAUS41 KCAR 240157
MTRGNR
METAR KGNR 240156Z AUTO 00000KT 19/18 A2978 RMK AO1 SLP078 P0002
T01890178





000
SAUS41 KCAR 240116
MTR40B
METAR K40B 240116Z AUTO 00000KT 17/17 A2979 RMK AO1 SLP075
     T01720165 51029





000
SAUS41 KCAR 240057
MTRGNR
METAR KGNR 240056Z AUTO 00000KT 19/18 A2977 RMK AO1 SLP076 P0005
T01940183





000
SAUS41 KCAR 240018
MTR40B
METAR K40B 240018Z AUTO 00000KT 18/17 A2976 RMK AO1 SLP067
     T01840166 10235 20182 53021 60128





000
SAUS41 KCAR 232357
MTRGNR
METAR KGNR 232356Z AUTO 00000KT 19/18 A2977 RMK AO1 SLP075 P0003
60027 T01940183 10272 20189 53006





000
SAUS41 KCAR 232316
MTR40B
METAR K40B 232316Z AUTO 00000KT 19/16 A2974 RMK AO1 SLP060
     T01880164 53017





000
SAUS41 KCAR 232257
MTRGNR
METAR KGNR 232256Z AUTO 00000KT 19/18 A2975 RMK AO1 SLP068 P0003
T01940183





000
SAUS41 KCAR 232216
MTR40B
METAR K40B 232216Z AUTO VRB02KT 21/20 A2970 RMK AO1 SLP044
     T02150201 54001





000
SAUS41 KCAR 232158
MTRGNR
METAR KGNR 232156Z AUTO VRB04KT 19/18 A2972 RMK AO1 SLP061 P0011
T01940178





000
SAUS41 KCAR 232116
MTR40B
METAR K40B 232116Z AUTO VRB02KT 22/21 A2970 RMK AO1 SLP045
     T02190213 55004 P0106 60128





000
SAUS41 KCAR 232057
MTRGNR
METAR KGNR 232056Z AUTO 00000KT 20/18 A2975 RMK AO1 SLP070 60010
T02000183 58002





000
SAUS41 KCAR 232016
MTR40B
METAR K40B 232016Z AUTO 21009G20KT 170V280 20/20 A2969 RMK AO1
     SLP042 T02040199 57009 P0020





000
SAUS41 KCAR 231957
MTRGNR
METAR KGNR 231956Z AUTO VRB05KT 20/18 A2975 RMK AO1 SLP072 P0005
T02000178





000
SAUS41 KCAR 231916
MTR40B
METAR K40B 231916Z AUTO VRB04KT 23/21 A2969 RMK AO1 SLP043
     T02310213 58008 P0001





000
SAUS41 KCAR 231857
MTRGNR
METAR KGNR 231856Z AUTO VRB05G23KT 20/18 A2976 RMK AO1 SLP075 P0005
T02000183





000
SAUS41 KCAR 231816
MTR40B
METAR K40B 231816Z AUTO VRB06G12KT 23/21 A2971 RMK AO1 SLP051
     T02290213 10262 20220 50001 60006





000
SAUS41 KCAR 231757
MTRGNR
METAR KGNR 231756Z AUTO 00000KT 27/19 A2975 RMK AO1 SLP068 T02720189
10289 20222 58014





000
SAUS41 KCAR 231716
MTR40B
METAR K40B 231716Z AUTO VRB03G11KT 22/20 A2972 RMK AO1 SLP052
     T02210205 50000 P0006





000
SAUS41 KCAR 231658
MTRGNR
METAR KGNR 231656Z AUTO 00000KT 28/18 A2976 RMK AO1 SLP071 T02780183





000
SAUS41 KCAR 231616
MTR40B
METAR K40B 231616Z AUTO VRB04KT 24/19 A2972 RMK AO1 SLP053
     T02390193 55003





000
SAUS41 KCAR 231557
MTRGNR
METAR KGNR 231556Z AUTO VRB03KT 28/19 A2979 RMK AO1 SLP079 T02780189





000
SAUS41 KCAR 231516
MTR40B
METAR K40B 231516Z AUTO 21008G16KT 150V270 25/19 A2972 RMK AO1
     SLP054 T02530186 56009





000
SAUS41 KCAR 231457
MTRGNR
METAR KGNR 231456Z AUTO VRB06KT 27/19 A2980 RMK AO1 SLP082 T02670189
56013





000
SAUS41 KCAR 231416
MTR40B
METAR K40B 231416Z AUTO 21008G19KT 170V260 26/19 A2972 RMK AO1 PK
     WND 18026/1330 SLP055 T02550192 57012





000
SAUS41 KCAR 231357
MTRGNR
METAR KGNR 231356Z AUTO VRB04KT 25/19 A2981 RMK AO1 SLP087 T02500189





000
SAUS41 KCAR 231316
MTR40B
METAR K40B 231316Z AUTO 20009G21KT 130V280 25/18 A2973 RMK AO1
     SLP058 T02500181 58010





000
SAUS41 KCAR 231300
MTRGNR
METAR KGNR 231256Z AUTO VRB05KT 24/19 A2982 RMK AO1 SLP091 T02440189





000
SAUS41 KCAR 231216
MTR40B
METAR K40B 231216Z AUTO 20008G23KT 170V260 24/18 A2975 RMK AO1
     SLP064 T02400177 10241 20172 57010





000
SAUS41 KCAR 231200
MTRGNR
METAR KGNR 231156Z AUTO VRB03KT 22/18 A2984 RMK AO1 SLP097 T02220183
10222 20172 58006





000
SAUS41 KCAR 231116
MTR40B
METAR K40B 231116Z AUTO 20011G16KT 22/18 A2976 RMK AO1 SLP067
     T02230175 57009





000
SAUS41 KCAR 231100
MTRGNR
METAR KGNR 231056Z AUTO 19006KT 21/18 A2984 RMK AO1 SLP098 T02110178





000
SAUS41 KCAR 231016
MTR40B
METAR K40B 231016Z AUTO 19012G16KT 21/17 A2976 RMK AO1 SLP069
     T02110166 56019





000
SAUS41 KCAR 231000
MTRGNR
METAR KGNR 230956Z AUTO 18005KT 20/17 A2985 RMK AO1 SLP102 T02000172





000
SAUS41 KCAR 230916
MTR40B
METAR K40B 230916Z AUTO 19007G10KT 170V240 19/16 A2978 RMK AO1
     SLP073 T01930164 56018





000
SAUS41 KCAR 230900
MTRGNR
METAR KGNR 230856Z AUTO 00000KT 18/17 A2986 RMK AO1 SLP105 T01780167
58014





000
SAUS41 KCAR 230816
MTR40B
METAR K40B 230816Z AUTO 17007KT 19/16 A2979 RMK AO1 SLP075
     T01890164 58021





000
SAUS41 KCAR 230800
MTRGNR
METAR KGNR 230756Z AUTO 00000KT 18/17 A2987 RMK AO1 SLP109 T01780167





000
SAUS41 KCAR 230716
MTR40B
METAR K40B 230716Z AUTO 00000KT 18/16 A2982 RMK AO1 SLP087
     T01750159 56014





000
SAUS41 KCAR 230700
MTRGNR
METAR KGNR 230656Z AUTO 00000KT 19/17 A2989 RMK AO1 SLP115 T01890172





000
SAUS41 KCAR 230616
MTR40B
METAR K40B 230616Z AUTO 00000KT 19/16 A2983 RMK AO1 SLP089
     T01920160 10245 20188 55018





000
SAUS41 KCAR 230600
MTRGNR
METAR KGNR 230556Z AUTO 18004KT 19/18 A2990 RMK AO1 SLP118 T01940183
10233 20194 56017





000
SAUS41 KCAR 230516
MTR40B
METAR K40B 230516Z AUTO 18008KT 21/17 A2985 RMK AO1 SLP095
     T02060165 402850121 57016





000
SAUS41 KCAR 230500
MTRGNR
METAR KGNR 230456Z AUTO 18003KT 19/18 A2991 RMK AO1 SLP121 T01940178
402830156





000
SAUS41 KCAR 230416
MTR40B
METAR K40B 230416Z AUTO VRB04KT 20/16 A2986 RMK AO1 SLP098
     T02050156 57020





000
SAUS41 KCAR 230400
MTRGNR
METAR KGNR 230356Z AUTO 19003KT 20/18 A2993 RMK AO1 SLP131 T02000183





000
SAUS41 KCAR 230316
MTR40B
METAR K40B 230316Z AUTO 00000KT 20/16 A2989 RMK AO1 SLP106
     T02010159 58014





000
SAUS41 KCAR 230300
MTRGNR
METAR KGNR 230256Z AUTO 19003KT 21/19 A2995 RMK AO1 SLP135 T02060189
58006





000
SAUS41 KCAR 230216
MTR40B
METAR K40B 230216Z AUTO 00000KT 20/16 A2990 RMK AO1 SLP110
     T02050160 58008





000
SAUS41 KCAR 230200
MTRGNR
METAR KGNR 230156Z AUTO 18003KT 22/19 A2996 RMK AO1 SLP140 T02170189





000
SAUS41 KCAR 230116
MTR40B
METAR K40B 230116Z AUTO 00000KT 22/16 A2992 RMK AO1 SLP117
     T02180161 50001





000
SAUS41 KCAR 230100
MTRGNR
METAR KGNR 230056Z AUTO 19003KT 23/18 A2997 RMK AO1 SLP144 T02280178





000
SAUS41 KCAR 230016
MTR40B
METAR K40B 230016Z AUTO VRB03KT 24/16 A2993 RMK AO1 SLP120
     T02450163 10285 20244 55001





000
SAUS41 KCAR 230000
MTRGNR
METAR KGNR 222356Z AUTO 00000KT 23/18 A2997 RMK AO1 SLP143 T02330178
10283 20233 55005





000
SAUS41 KCAR 222316
MTR40B
METAR K40B 222316Z AUTO VRB04KT 26/16 A2993 RMK AO1 SLP118
     T02620163 56008





000
SAUS41 KCAR 222300
MTRGNR
METAR KGNR 222256Z AUTO VRB03KT 26/17 A2995 RMK AO1 SLP138 T02560167





000
SAUS41 KCAR 222216
MTR40B
METAR K40B 222216Z AUTO VRB06G21KT 27/16 A2992 RMK AO1 SLP118
     T02740164 56016





000
SAUS41 KCAR 222200
MTRGNR
METAR KGNR 222156Z AUTO VRB04KT 27/17 A2997 RMK AO1 SLP142 T02720167





000
SAUS41 KCAR 222116
MTR40B
METAR K40B 222116Z AUTO VRB04G12KT 28/17 A2993 RMK AO1 SLP122
     T02790166 58019





000
SAUS41 KCAR 222100
MTRGNR
METAR KGNR 222056Z AUTO 00000KT 27/18 A2999 RMK AO1 SLP149 T02670178
58019





000
SAUS41 KCAR 222016
MTR40B
METAR K40B 222016Z AUTO 20010G18KT 170V240 28/16 A2995 RMK AO1
     SLP130 T02770158 57020





000
SAUS41 KCAR 222000
MTRGNR
METAR KGNR 221956Z AUTO 00000KT 27/17 A3001 RMK AO1 SLP156 T02670167





000
SAUS41 KCAR 221916
MTR40B
METAR K40B 221916Z AUTO 20009G16KT 170V230 28/16 A2997 RMK AO1
     SLP141 T02810159 57017





000
SAUS41 KCAR 221900
MTRGNR
METAR KGNR 221856Z AUTO 00000KT 27/17 A3002 RMK AO1 SLP162 T02720172





000
SAUS41 KCAR 221816
MTR40B
METAR K40B 221816Z AUTO VRB06G22KT 28/16 A2999 RMK AO1 SLP147
     T02760162 10282 20218 58018





000
SAUS41 KCAR 221800
MTRGNR
METAR KGNR 221756Z AUTO VRB04KT 27/16 A3004 RMK AO1 SLP169 T02720161
10278 20206 56018





000
SAUS41 KCAR 221719
MTR40B
METAR K40B 221719Z AUTO VRB04G15KT 26/16 A3001 RMK AO1 SLP156
     T02650156 57015





000
SAUS41 KCAR 221700
MTRGNR
METAR KGNR 221656Z AUTO 32005KT 26/16 A3006 RMK AO1 SLP175 T02560161





000
SAUS41 KCAR 221616
MTR40B
METAR K40B 221616Z AUTO VRB04G13KT 26/15 A3002 RMK AO1 SLP162
     T02640153 56022





000
SAUS41 KCAR 221600
MTRGNR
METAR KGNR 221556Z AUTO VRB03KT 25/17 A3008 RMK AO1 SLP180 T02500167





    US Dept of Commerce
    National Oceanic and Atmospheric Administration
    National Weather Service
    1325 East West Highway
    Silver Spring, MD 20910
    Page Author: NWS Internet Services Team
Disclaimer
Information Quality
Credits
Glossary
Privacy Policy
Freedom of Information Act (FOIA)
About Us
Career Opportunities